Time;durP1;ratioP1;P1;durP2;ratioP2;P2;SDS_P1;SDS_P2;PMS_P1;PMS_P2;Temp;Humidity;BMP_temperature;BMP_pressure;BME280_temperature;BME280_humidity;BME280_pressure;Samples;Min_cycle;Max_cycle;Signal;HPM_P1;HPM_P2
2022/04/27 00:00:24;;;;;;;8.70;7.17;;;8.10;45.20;;;;;;5031688;28;20466;-74
2022/04/27 00:02:51;;;;;;;9.30;6.47;;;8.30;45.20;;;;;;5031940;28;20191;-74
2022/04/27 00:05:17;;;;;;;10.00;6.60;;;8.20;44.90;;;;;;5031887;28;20438;-74
2022/04/27 00:07:43;;;;;;;7.40;6.27;;;8.30;45.00;;;;;;5031717;28;20517;-74
2022/04/27 00:10:08;;;;;;;8.83;7.43;;;8.50;42.90;;;;;;5032080;28;20609;-74
2022/04/27 00:12:35;;;;;;;9.50;8.50;;;8.40;43.40;;;;;;5030447;28;20242;-74
2022/04/27 00:15:01;;;;;;;7.40;6.40;;;8.20;44.30;;;;;;5030480;28;20179;-74
2022/04/27 00:17:27;;;;;;;9.47;7.23;;;8.20;45.40;;;;;;5031333;28;20824;-76
2022/04/27 00:19:52;;;;;;;10.17;6.93;;;8.20;45.60;;;;;;5031595;28;20439;-75
2022/04/27 00:22:18;;;;;;;7.40;5.33;;;8.10;46.30;;;;;;5031583;28;20243;-75
2022/04/27 00:24:44;;;;;;;8.23;7.40;;;8.20;45.40;;;;;;5032421;28;20186;-75
2022/04/27 00:27:09;;;;;;;10.77;7.93;;;7.90;47.20;;;;;;5030075;28;20182;-75
2022/04/27 00:29:35;;;;;;;10.47;6.87;;;8.00;47.90;;;;;;5032091;28;20211;-75
2022/04/27 00:32:00;;;;;;;7.27;5.80;;;8.00;46.90;;;;;;5035111;28;20229;-74
2022/04/27 00:34:26;;;;;;;9.77;7.20;;;7.90;47.70;;;;;;5035211;28;20172;-75
2022/04/27 00:36:52;;;;;;;8.33;4.93;;;8.00;47.20;;;;;;5035461;28;20183;-74
2022/04/27 00:39:18;;;;;;;7.87;6.90;;;8.00;45.70;;;;;;5035254;28;20385;-75
2022/04/27 00:41:59;;;;;;;5.77;5.17;;;8.00;46.20;;;;;;5034919;28;20177;-74
2022/04/27 00:44:32;;;;;;;6.97;5.30;;;8.10;47.10;;;;;;5033601;28;20184;-75
2022/04/27 00:46:58;;;;;;;5.90;5.30;;;8.10;45.80;;;;;;5034987;28;20419;-75
2022/04/27 00:49:24;;;;;;;5.63;5.17;;;8.00;47.20;;;;;;5034842;28;20936;-74
2022/04/27 00:51:50;;;;;;;6.87;5.43;;;8.00;47.00;;;;;;5035283;28;20486;-75
2022/04/27 00:54:16;;;;;;;7.23;5.60;;;7.90;47.60;;;;;;5034791;28;20896;-73
2022/04/27 00:56:42;;;;;;;6.50;5.80;;;7.70;48.40;;;;;;5034752;28;20210;-74
2022/04/27 00:59:08;;;;;;;8.53;5.60;;;7.80;48.90;;;;;;5034481;28;20456;-74
2022/04/27 01:01:34;;;;;;;6.00;4.93;;;7.80;48.50;;;;;;5033439;28;20431;-74
2022/04/27 01:04:00;;;;;;;6.07;5.30;;;7.80;47.70;;;;;;5033412;28;20424;-74
2022/04/27 01:06:26;;;;;;;5.80;5.17;;;7.80;48.60;;;;;;5034626;28;20771;-74
2022/04/27 01:08:53;;;;;;;5.47;4.83;;;8.00;48.00;;;;;;5034417;28;20806;-74
2022/04/27 01:11:18;;;;;;;8.13;5.67;;;8.20;46.90;;;;;;5033855;28;20418;-75
2022/04/27 01:13:45;;;;;;;6.07;5.47;;;8.10;47.00;;;;;;5034663;28;20429;-74
2022/04/27 01:16:11;;;;;;;8.47;7.20;;;8.10;45.80;;;;;;5034872;28;20184;-73
2022/04/27 01:18:37;;;;;;;9.50;6.90;;;8.00;46.70;;;;;;5034167;28;20410;-74
2022/04/27 01:21:03;;;;;;;7.23;5.93;;;7.80;49.00;;;;;;5034378;28;20453;-73
2022/04/27 01:23:29;;;;;;;6.43;5.80;;;7.90;49.10;;;;;;5034449;28;20542;-74
2022/04/27 01:25:57;;;;;;;6.70;5.60;;;7.90;48.30;;;;;;5034415;28;20448;-75
2022/04/27 01:28:25;;;;;;;7.23;5.80;;;7.90;49.20;;;;;;5032673;28;20187;-74
2022/04/27 01:31:02;;;;;;;5.83;5.23;;;8.00;48.80;;;;;;5032773;28;20505;-74
2022/04/27 01:33:29;;;;;;;8.00;5.17;;;8.00;48.70;;;;;;5034044;28;20821;-76
2022/04/27 01:35:55;;;;;;;7.93;7.10;;;8.10;48.10;;;;;;5034332;28;20410;-74
2022/04/27 01:38:21;;;;;;;7.40;5.70;;;8.10;47.00;;;;;;5034048;28;20770;-74
2022/04/27 01:40:47;;;;;;;8.13;5.70;;;8.00;47.20;;;;;;5033537;28;20209;-74
2022/04/27 01:43:16;;;;;;;9.43;5.93;;;8.10;47.90;;;;;;5033647;28;20262;-74
2022/04/27 01:45:43;;;;;;;8.40;6.97;;;8.10;46.90;;;;;;5032874;28;21006;-74
2022/04/27 01:48:11;;;;;;;6.33;5.43;;;8.00;46.70;;;;;;5033704;28;20945;-74
2022/04/27 01:50:37;;;;;;;9.03;6.63;;;8.10;47.60;;;;;;5033677;28;20784;-74
2022/04/27 01:55:47;;;;;;;9.03;5.57;;;8.20;46.90;;;;;;5034129;28;20508;-73
2022/04/27 01:58:13;;;;;;;7.93;6.13;;;8.30;45.90;;;;;;5032055;28;20504;-74
2022/04/27 02:00:38;;;;;;;6.70;6.10;;;8.50;45.00;;;;;;5034170;28;20212;-76
2022/04/27 02:03:05;;;;;;;5.93;5.10;;;8.50;43.90;;;;;;5016076;28;20572;-76
2022/04/27 02:05:31;;;;;;;6.00;5.40;;;8.60;43.30;;;;;;5033548;28;20455;-75
2022/04/27 02:07:56;;;;;;;7.17;5.57;;;8.70;42.90;;;;;;5033228;28;20928;-76
2022/04/27 02:10:22;;;;;;;6.70;5.93;;;8.70;42.50;;;;;;5034165;28;20704;-76
2022/04/27 02:12:47;;;;;;;8.27;5.37;;;8.60;43.10;;;;;;5032077;28;20572;-76
2022/04/27 02:15:13;;;;;;;8.93;6.60;;;8.60;42.50;;;;;;5032112;28;20175;-76
2022/04/27 02:17:39;;;;;;;5.90;5.30;;;8.60;41.90;;;;;;5031713;28;20195;-77
2022/04/27 02:20:05;;;;;;;7.57;6.10;;;8.60;41.90;;;;;;5032344;28;20200;-76
2022/04/27 02:22:34;;;;;;;8.93;6.30;;;8.60;41.40;;;;;;5032402;28;20434;-76
2022/04/27 02:25:01;;;;;;;10.13;5.57;;;8.60;41.60;;;;;;5033124;28;20942;-76
2022/04/27 02:27:27;;;;;;;8.57;7.30;;;8.60;42.00;;;;;;5032882;28;20497;-76
2022/04/27 02:29:52;;;;;;;7.07;6.37;;;8.70;42.10;;;;;;5033425;28;20524;-75
2022/04/27 02:32:18;;;;;;;10.17;7.87;;;8.80;41.30;;;;;;5032904;28;21022;-75
2022/04/27 02:34:44;;;;;;;12.00;8.57;;;8.80;41.30;;;;;;5032908;28;20633;-76
2022/04/27 02:37:10;;;;;;;8.50;6.40;;;8.70;42.20;;;;;;5034161;28;20177;-73
2022/04/27 02:39:35;;;;;;;6.43;5.13;;;8.70;42.60;;;;;;5032789;28;21006;-77
2022/04/27 02:42:01;;;;;;;9.83;7.93;;;8.80;42.20;;;;;;5032181;28;20557;-77
2022/04/27 02:44:26;;;;;;;9.90;6.60;;;8.60;42.70;;;;;;5032928;28;20660;-77
2022/04/27 02:46:52;;;;;;;6.37;5.77;;;8.60;43.70;;;;;;5032878;28;20175;-76
2022/04/27 02:52:02;;;;;;;8.60;7.27;;;8.70;43.40;;;;;;5033067;28;20679;-76
2022/04/27 02:54:27;;;;;;;7.93;6.23;;;8.70;43.10;;;;;;5032621;28;20403;-77
2022/04/27 02:56:54;;;;;;;8.17;6.17;;;8.70;43.10;;;;;;5032861;28;20175;-77
2022/04/27 02:59:20;;;;;;;9.57;8.57;;;8.70;43.60;;;;;;5032265;28;20208;-76
2022/04/27 03:01:46;;;;;;;8.77;6.43;;;8.70;43.60;;;;;;5031097;28;20897;-77
2022/04/27 03:04:12;;;;;;;8.63;6.47;;;8.80;42.80;;;;;;5032610;28;20183;-77
2022/04/27 03:06:37;;;;;;;9.00;6.20;;;8.80;42.00;;;;;;5031110;28;20237;-77
2022/04/27 03:09:03;;;;;;;9.30;8.40;;;8.80;41.70;;;;;;5032584;28;20581;-77
2022/04/27 03:11:29;;;;;;;10.43;7.60;;;8.50;42.50;;;;;;5031284;28;20194;-77
2022/04/27 03:13:54;;;;;;;14.97;9.93;;;8.30;45.00;;;;;;5032282;28;20418;-77
2022/04/27 03:16:20;;;;;;;12.90;9.13;;;8.00;46.60;;;;;;5033077;28;20686;-76
2022/04/27 03:18:46;;;;;;;10.03;8.67;;;7.90;48.60;;;;;;5031771;28;20291;-77
2022/04/27 03:21:12;;;;;;;11.03;7.67;;;7.90;49.40;;;;;;5032843;28;20630;-76
2022/04/27 03:23:37;;;;;;;13.47;9.93;;;8.10;47.90;;;;;;5032141;28;20417;-77
2022/04/27 03:26:03;;;;;;;8.90;7.63;;;8.30;46.50;;;;;;5031011;28;20436;-76
2022/04/27 03:28:29;;;;;;;10.90;8.77;;;8.30;45.90;;;;;;5030613;28;20195;-76
2022/04/27 03:30:55;;;;;;;12.70;8.50;;;8.40;45.30;;;;;;5032114;28;20907;-76
2022/04/27 03:33:20;;;;;;;9.30;7.87;;;8.20;46.60;;;;;;5032039;28;20215;-76
2022/04/27 03:35:46;;;;;;;11.70;8.00;;;8.20;47.70;;;;;;5030736;28;20619;-76
2022/04/27 03:38:14;;;;;;;8.07;7.27;;;8.40;46.60;;;;;;5031727;28;20175;-76
2022/04/27 03:40:40;;;;;;;11.27;7.77;;;8.50;46.10;;;;;;5031919;28;20437;-75
2022/04/27 03:43:05;;;;;;;12.40;7.70;;;8.70;45.80;;;;;;5030730;28;20423;-74
2022/04/27 03:45:31;;;;;;;11.53;8.50;;;8.70;43.70;;;;;;5030663;28;20912;-76
2022/04/27 03:47:56;;;;;;;9.37;8.13;;;8.60;45.30;;;;;;5031672;28;20637;-75
2022/04/27 03:50:22;;;;;;;12.10;8.50;;;8.60;44.80;;;;;;5030494;28;20669;-76
2022/04/27 03:52:48;;;;;;;12.90;8.90;;;8.60;45.20;;;;;;5032003;28;20216;-76
2022/04/27 03:55:14;;;;;;;10.67;7.70;;;8.70;44.20;;;;;;5030889;28;20187;-76
2022/04/27 03:57:39;;;;;;;8.77;6.97;;;8.60;45.30;;;;;;5031962;28;20181;-76
2022/04/27 04:00:06;;;;;;;10.87;8.73;;;8.60;45.70;;;;;;5032028;28;20458;-76
2022/04/27 04:02:32;;;;;;;9.83;8.30;;;8.60;45.60;;;;;;5031890;28;20413;-76
2022/04/27 04:04:58;;;;;;;12.03;8.83;;;8.50;45.00;;;;;;5034431;28;20851;-76
2022/04/27 04:07:23;;;;;;;11.00;9.00;;;8.30;45.90;;;;;;5034335;28;20526;-76
2022/04/27 04:09:49;;;;;;;10.30;7.87;;;8.20;47.60;;;;;;5035603;28;20541;-76
2022/04/27 04:12:15;;;;;;;11.33;9.13;;;8.30;48.00;;;;;;5034284;28;20575;-76
2022/04/27 04:14:40;;;;;;;13.03;8.73;;;8.40;47.30;;;;;;5035790;28;20602;-75
2022/04/27 04:17:06;;;;;;;11.63;8.90;;;8.50;46.60;;;;;;5035914;28;20180;-77
2022/04/27 04:19:32;;;;;;;12.30;8.23;;;8.70;45.30;;;;;;5035462;28;20196;-77
2022/04/27 04:21:59;;;;;;;13.53;8.60;;;8.80;44.20;;;;;;5035400;28;20419;-76
2022/04/27 04:24:25;;;;;;;8.83;6.77;;;8.90;43.50;;;;;;5036160;28;20420;-76
2022/04/27 04:29:35;;;;;;;8.37;6.47;;;9.00;42.40;;;;;;5035570;28;20978;-76
2022/04/27 04:32:00;;;;;;;9.00;8.07;;;9.00;42.00;;;;;;5034496;28;20471;-77
2022/04/27 04:34:26;;;;;;;9.23;7.63;;;9.00;41.50;;;;;;5036179;28;20685;-78
2022/04/27 04:36:52;;;;;;;10.43;8.13;;;9.00;41.40;;;;;;5035851;28;20182;-77
2022/04/27 04:39:17;;;;;;;9.90;7.70;;;8.50;42.90;;;;;;5035129;28;20195;-76
2022/04/27 04:41:43;;;;;;;11.43;9.10;;;8.40;45.10;;;;;;5035714;28;20189;-76
2022/04/27 04:44:08;;;;;;;9.40;8.10;;;8.60;45.00;;;;;;5034138;28;20218;-77
2022/04/27 04:46:34;;;;;;;11.03;9.33;;;8.70;44.40;;;;;;5035282;28;20263;-76
2022/04/27 04:48:59;;;;;;;12.03;8.77;;;8.80;44.30;;;;;;5034988;28;20200;-76
2022/04/27 04:51:25;;;;;;;8.83;6.60;;;9.00;43.90;;;;;;5034157;28;20206;-76
2022/04/27 04:53:50;;;;;;;7.97;6.37;;;9.10;42.70;;;;;;5036040;28;20222;-76
2022/04/27 04:56:16;;;;;;;7.30;6.57;;;9.20;41.60;;;;;;5035610;28;20573;-76
2022/04/27 04:58:42;;;;;;;9.87;8.33;;;9.30;39.90;;;;;;5033404;28;20208;-75
2022/04/27 05:01:07;;;;;;;10.30;7.70;;;9.30;38.80;;;;;;5035661;28;20304;-76
2022/04/27 05:03:36;;;;;;;10.43;7.70;;;9.30;38.00;;;;;;5035082;28;20228;-77
2022/04/27 05:06:02;;;;;;;10.90;9.80;;;9.40;37.40;;;;;;5034231;28;20243;-76
2022/04/27 05:08:28;;;;;;;8.20;6.97;;;9.50;36.70;;;;;;5034225;28;20428;-76
2022/04/27 05:10:54;;;;;;;11.73;7.77;;;9.50;37.00;;;;;;5035172;28;20428;-75
2022/04/27 05:13:19;;;;;;;9.47;8.37;;;9.50;37.50;;;;;;5034464;28;20229;-77
2022/04/27 05:15:45;;;;;;;9.57;8.37;;;9.60;38.20;;;;;;5034162;28;20636;-76
2022/04/27 05:18:11;;;;;;;9.93;7.80;;;10.00;39.90;;;;;;5034700;28;20205;-77
2022/04/27 05:20:38;;;;;;;8.27;7.40;;;11.00;39.70;;;;;;5035484;28;20194;-77
2022/04/27 05:23:06;;;;;;;8.70;7.80;;;12.30;33.00;;;;;;5034952;28;20178;-77
2022/04/27 05:25:34;;;;;;;10.57;8.60;;;13.40;30.40;;;;;;5035225;28;20497;-77
2022/04/27 05:28:02;;;;;;;10.13;9.23;;;14.00;26.30;;;;;;5034615;28;20422;-77
2022/04/27 05:33:13;;;;;;;13.53;12.53;;;14.20;24.00;;;;;;5035414;28;20480;-77
2022/04/27 05:35:39;;;;;;;13.57;12.77;;;14.30;22.70;;;;;;5037655;28;20421;-77
2022/04/27 05:38:05;;;;;;;13.90;12.80;;;14.60;22.40;;;;;;5038899;28;20429;-75
2022/04/27 05:40:31;;;;;;;13.47;12.57;;;14.70;21.80;;;;;;5044988;28;20464;-76
2022/04/27 05:42:57;;;;;;;12.87;11.97;;;14.80;21.00;;;;;;5035597;28;20198;-77
2022/04/27 05:45:23;;;;;;;13.73;12.77;;;14.70;21.60;;;;;;5034527;28;20269;-75
2022/04/27 05:47:49;;;;;;;13.93;13.03;;;14.60;21.50;;;;;;5034452;28;20475;-77
2022/04/27 05:50:15;;;;;;;13.50;12.60;;;14.40;20.50;;;;;;5034862;28;20438;-77
2022/04/27 05:52:52;;;;;;;14.00;13.07;;;14.20;21.20;;;;;;5035519;28;20648;-77
2022/04/27 05:55:19;;;;;;;11.67;10.93;;;13.80;21.00;;;;;;5033871;28;20179;-77
2022/04/27 05:57:45;;;;;;;12.10;11.20;;;12.80;21.90;;;;;;5032426;28;20480;-77
2022/04/27 06:00:12;;;;;;;11.03;10.23;;;12.30;23.60;;;;;;5033679;28;20815;-77
2022/04/27 06:02:38;;;;;;;10.20;9.40;;;11.60;24.20;;;;;;5033589;28;20183;-75
2022/04/27 06:05:05;;;;;;;11.83;10.63;;;11.40;24.60;;;;;;5033582;28;20786;-75
2022/04/27 06:07:31;;;;;;;15.67;11.50;;;10.70;26.50;;;;;;5031646;28;20426;-76
2022/04/27 06:09:56;;;;;;;12.50;10.80;;;10.40;28.60;;;;;;5033381;28;20438;-75
2022/04/27 06:12:25;;;;;;;8.23;7.53;;;10.70;28.40;;;;;;5032091;28;20296;-75
2022/04/27 06:14:51;;;;;;;9.47;8.70;;;10.80;27.30;;;;;;5032085;28;20184;-75
2022/04/27 06:17:17;;;;;;;9.70;8.80;;;11.00;27.40;;;;;;5032909;28;20415;-76
2022/04/27 06:19:43;;;;;;;14.63;10.43;;;11.10;27.60;;;;;;5031798;28;20288;-76
2022/04/27 06:22:08;;;;;;;9.40;8.53;;;11.20;27.60;;;;;;5033180;28;20854;-76
2022/04/27 06:24:34;;;;;;;11.57;10.50;;;11.40;27.30;;;;;;5033211;28;20671;-74
2022/04/27 06:26:59;;;;;;;10.20;9.30;;;11.60;26.50;;;;;;5032692;28;20664;-76
2022/04/27 06:29:25;;;;;;;11.80;10.80;;;11.90;25.90;;;;;;5032648;28;20230;-76
2022/04/27 06:31:51;;;;;;;10.77;9.83;;;11.90;25.40;;;;;;5032777;28;20204;-75
2022/04/27 06:34:16;;;;;;;11.87;10.77;;;12.20;25.40;;;;;;5032922;28;20172;-75
2022/04/27 06:36:42;;;;;;;11.10;10.30;;;12.50;25.30;;;;;;5032939;28;20180;-76
2022/04/27 06:39:12;;;;;;;13.07;12.00;;;12.80;24.50;;;;;;5032864;28;20208;-76
2022/04/27 06:41:38;;;;;;;14.77;13.67;;;13.20;23.50;;;;;;5032826;28;20176;-76
2022/04/27 06:44:03;;;;;;;11.07;10.27;;;13.40;22.20;;;;;;5031778;28;20736;-76
2022/04/27 06:46:29;;;;;;;14.53;13.63;;;14.30;25.10;;;;;;5032705;28;20183;-76
2022/04/27 06:48:55;;;;;;;14.37;13.47;;;15.80;20.50;;;;;;5032201;28;20243;-75
2022/04/27 06:51:21;;;;;;;16.33;15.20;;;17.60;18.80;;;;;;5032520;28;20179;-76
2022/04/27 06:53:47;;;;;;;18.10;16.90;;;19.50;14.70;;;;;;5032665;28;20418;-76
2022/04/27 06:56:16;;;;;;;17.67;16.70;;;21.00;11.70;;;;;;5031372;28;20175;-76
2022/04/27 06:58:41;;;;;;;18.37;17.47;;;22.20;11.30;;;;;;5030882;28;20791;-77
2022/04/27 07:01:07;;;;;;;18.57;17.67;;;22.70;5.50;;;;;;5032644;28;20425;-77
2022/04/27 07:03:33;;;;;;;19.70;18.60;;;22.00;5.70;;;;;;5032611;28;20203;-77
2022/04/27 07:05:59;;;;;;;17.07;16.27;;;21.10;8.30;;;;;;5032510;28;20225;-76
2022/04/27 07:08:25;;;;;;;19.13;18.10;;;21.60;8.70;;;;;;5030828;28;20422;-76
2022/04/27 07:10:51;;;;;;;19.80;18.63;;;22.60;8.20;;;;;;5032417;28;20468;-77
2022/04/27 07:13:16;;;;;;;19.30;18.30;;;22.00;6.80;;;;;;5032321;28;20868;-76
2022/04/27 07:15:42;;;;;;;18.17;17.13;;;20.30;6.50;;;;;;5032263;28;20202;-76
2022/04/27 07:18:07;;;;;;;18.67;17.57;;;20.60;8.90;;;;;;5031927;28;20543;-75
2022/04/27 07:20:33;;;;;;;19.00;18.00;;;20.60;8.00;;;;;;5032162;28;20207;-76
2022/04/27 07:22:59;;;;;;;19.43;18.33;;;20.10;7.60;;;;;;5032385;28;20250;-76
2022/04/27 07:25:24;;;;;;;18.90;17.90;;;19.20;9.20;;;;;;5032076;28;20250;-76
2022/04/27 07:27:50;;;;;;;18.13;17.03;;;18.50;10.70;;;;;;5032119;28;20171;-77
2022/04/27 07:30:15;;;;;;;20.33;18.97;;;17.80;11.60;;;;;;5032166;28;20662;-76
2022/04/27 07:32:41;;;;;;;18.43;16.87;;;16.30;12.40;;;;;;5032310;28;20222;-76
2022/04/27 07:35:07;;;;;;;17.53;16.43;;;15.60;14.40;;;;;;5032728;28;20640;-75
2022/04/27 07:37:37;;;;;;;17.60;16.40;;;16.00;13.80;;;;;;5038106;28;20175;-75
2022/04/27 07:40:03;;;;;;;15.83;15.03;;;16.10;13.80;;;;;;5038768;28;20414;-76
2022/04/27 07:42:29;;;;;;;16.13;15.23;;;15.20;13.90;;;;;;5032310;28;20783;-75
2022/04/27 07:44:54;;;;;;;13.40;12.70;;;15.10;14.40;;;;;;5032045;28;20417;-75
2022/04/27 07:47:20;;;;;;;14.17;13.47;;;15.00;15.80;;;;;;5030643;28;20217;-76
2022/04/27 07:49:47;;;;;;;16.43;15.33;;;16.00;14.90;;;;;;5032089;28;20306;-76
2022/04/27 07:52:13;;;;;;;14.33;13.63;;;16.30;12.70;;;;;;5033473;28;20714;-75
2022/04/27 07:54:41;;;;;;;15.17;14.33;;;15.90;12.50;;;;;;5030600;28;20418;-76
2022/04/27 07:57:07;;;;;;;16.27;15.27;;;15.90;14.30;;;;;;5031782;28;20585;-76
2022/04/27 07:59:32;;;;;;;14.90;14.10;;;16.30;14.00;;;;;;5032009;28;20813;-76
2022/04/27 08:01:58;;;;;;;15.30;14.37;;;15.70;12.70;;;;;;5031791;28;20237;-76
2022/04/27 08:04:23;;;;;;;14.33;13.43;;;15.30;13.30;;;;;;5031626;28;20180;-76
2022/04/27 08:06:50;;;;;;;15.13;14.23;;;14.80;13.60;;;;;;5030377;28;20183;-75
2022/04/27 08:09:16;;;;;;;13.83;13.03;;;14.40;14.60;;;;;;5031297;28;20206;-76
2022/04/27 08:11:42;;;;;;;14.50;13.70;;;14.50;16.00;;;;;;5031437;28;20501;-76
2022/04/27 08:14:08;;;;;;;15.77;14.73;;;14.90;14.80;;;;;;5031530;28;20577;-75
2022/04/27 08:16:34;;;;;;;13.57;12.87;;;15.40;13.40;;;;;;5031425;28;20641;-75
2022/04/27 08:18:59;;;;;;;14.30;13.50;;;15.90;13.70;;;;;;5031202;28;20685;-74
2022/04/27 08:21:27;;;;;;;14.30;13.60;;;16.70;12.20;;;;;;5031361;28;20773;-76
2022/04/27 08:23:53;;;;;;;15.67;14.83;;;16.60;14.20;;;;;;5030192;28;20182;-76
2022/04/27 08:26:18;;;;;;;15.13;14.40;;;16.80;12.50;;;;;;5031514;28;20417;-76
2022/04/27 08:28:48;;;;;;;15.47;14.67;;;17.30;11.30;;;;;;5029929;28;20498;-75
2022/04/27 08:31:16;;;;;;;14.20;13.60;;;16.40;12.40;;;;;;5031418;28;20195;-76
2022/04/27 08:33:42;;;;;;;14.87;13.97;;;16.60;12.10;;;;;;5030134;28;20545;-76
2022/04/27 08:36:08;;;;;;;16.00;15.20;;;15.80;13.60;;;;;;5030190;28;20420;-75
2022/04/27 08:38:34;;;;;;;14.33;13.63;;;16.00;13.70;;;;;;5030481;28;20476;-76
2022/04/27 08:41:00;;;;;;;14.53;13.77;;;15.80;13.40;;;;;;5030131;28;20175;-75
2022/04/27 08:43:26;;;;;;;14.73;14.00;;;15.70;13.60;;;;;;5031452;28;20414;-76
2022/04/27 08:45:52;;;;;;;14.27;13.57;;;16.10;12.70;;;;;;5031276;28;20191;-75
2022/04/27 08:48:18;;;;;;;13.87;13.27;;;15.20;12.10;;;;;;5031083;28;20811;-76
2022/04/27 08:50:45;;;;;;;13.50;12.70;;;14.70;12.90;;;;;;5031948;28;20289;-76
2022/04/27 08:53:11;;;;;;;13.83;13.13;;;14.30;13.80;;;;;;5034643;28;20468;-76
2022/04/27 08:55:38;;;;;;;12.80;12.10;;;13.80;14.10;;;;;;5035015;28;20431;-75
2022/04/27 08:58:15;;;;;;;13.60;12.23;;;13.30;16.30;;;;;;5033426;28;20414;-76
2022/04/27 09:00:42;;;;;;;12.13;11.53;;;13.50;14.50;;;;;;5034507;28;20447;-76
2022/04/27 09:03:46;;;;;;;12.83;12.13;;;13.70;14.20;;;;;;5033219;28;20425;-76
2022/04/27 09:06:15;;;;;;;11.30;10.70;;;13.00;15.00;;;;;;4992809;28;20424;-76
2022/04/27 09:08:52;;;;;;;11.70;11.13;;;13.10;16.30;;;;;;4992692;28;20929;-76
2022/04/27 09:11:25;;;;;;;13.07;12.23;;;13.40;15.10;;;;;;5023849;28;20477;-76
2022/04/27 09:13:55;;;;;;;13.57;12.70;;;13.20;16.30;;;;;;5033337;28;20464;-77
2022/04/27 09:16:24;;;;;;;13.50;12.83;;;13.40;16.10;;;;;;5034910;28;20776;-77
2022/04/27 09:21:53;;;;;;;12.30;11.80;;;13.50;15.60;;;;;;5034267;28;20839;-76
2022/04/27 09:24:19;;;;;;;12.73;12.13;;;13.80;15.40;;;;;;5033379;28;20412;-76
2022/04/27 09:26:44;;;;;;;13.13;12.53;;;14.10;13.80;;;;;;5033182;28;20478;-76
2022/04/27 09:29:25;;;;;;;13.30;12.67;;;14.20;14.10;;;;;;5033793;28;20428;-76
2022/04/27 09:31:56;;;;;;;12.80;12.20;;;14.50;15.40;;;;;;5037810;28;20206;-76
2022/04/27 09:34:29;;;;;;;12.70;12.10;;;14.90;13.00;;;;;;5038660;28;20942;-78
2022/04/27 09:36:59;;;;;;;13.70;13.10;;;14.90;13.10;;;;;;5033236;28;20406;-75
2022/04/27 09:39:25;;;;;;;13.47;12.73;;;14.90;13.00;;;;;;5034864;28;20436;-77
2022/04/27 09:41:51;;;;;;;12.50;11.90;;;14.70;12.90;;;;;;5032872;28;20429;-77
2022/04/27 09:44:30;;;;;;;13.37;12.67;;;14.30;13.30;;;;;;5033838;28;20543;-76
2022/04/27 09:46:57;;;;;;;13.53;12.83;;;14.30;14.10;;;;;;5033984;28;20410;-77
2022/04/27 09:49:23;;;;;;;13.60;13.00;;;14.70;13.40;;;;;;5033469;28;20445;-76
2022/04/27 09:51:51;;;;;;;14.10;13.40;;;14.90;11.90;;;;;;5033687;28;20553;-76
2022/04/27 09:54:19;;;;;;;15.10;14.40;;;15.40;11.20;;;;;;5033631;28;20180;-77
2022/04/27 09:56:51;;;;;;;13.10;12.50;;;15.20;11.50;;;;;;5033966;28;20927;-77
2022/04/27 09:59:19;;;;;;;13.80;13.20;;;15.40;10.60;;;;;;5035143;28;20457;-76
2022/04/27 10:01:46;;;;;;;13.70;13.10;;;15.70;11.30;;;;;;5033516;28;20446;-76
2022/04/27 10:04:13;;;;;;;17.23;16.00;;;14.50;12.80;;;;;;5033210;28;20417;-76
2022/04/27 10:06:39;;;;;;;13.40;12.70;;;14.60;13.00;;;;;;5033549;28;20414;-76
2022/04/27 10:09:05;;;;;;;14.00;13.40;;;14.90;12.10;;;;;;5033489;28;20529;-76
2022/04/27 10:11:32;;;;;;;14.00;13.30;;;15.00;13.10;;;;;;5033764;28;20457;-77
2022/04/27 10:13:58;;;;;;;13.50;12.83;;;14.30;13.50;;;;;;5035644;28;20273;-77
2022/04/27 10:16:25;;;;;;;13.17;12.53;;;14.40;14.60;;;;;;5035643;28;20445;-76
2022/04/27 10:18:51;;;;;;;14.20;13.40;;;14.60;14.00;;;;;;5034602;28;20798;-77
2022/04/27 10:21:43;;;;;;;13.33;12.63;;;14.50;12.80;;;;;;5036009;28;20810;-77
2022/04/27 10:24:12;;;;;;;13.97;13.17;;;14.80;14.20;;;;;;5036854;28;20413;-76
2022/04/27 10:26:38;;;;;;;14.30;13.60;;;14.70;12.90;;;;;;5034906;28;20421;-77
2022/04/27 10:29:05;;;;;;;14.77;14.03;;;14.60;13.20;;;;;;5034915;28;20513;-76
2022/04/27 10:31:40;;;;;;;13.57;12.87;;;15.00;13.10;;;;;;5034948;28;20562;-77
2022/04/27 10:34:20;;;;;;;13.73;13.13;;;15.20;12.40;;;;;;5035116;28;20775;-76
2022/04/27 10:36:50;;;;;;;13.90;13.20;;;15.40;11.90;;;;;;5036433;28;20431;-75
2022/04/27 10:39:19;;;;;;;14.20;13.60;;;15.70;11.60;;;;;;5036617;28;20430;-76
2022/04/27 10:42:03;;;;;;;13.73;13.13;;;15.80;10.80;;;;;;5038633;28;20787;-77
2022/04/27 10:44:47;;;;;;;14.00;13.40;;;15.40;11.00;;;;;;5038381;28;20414;-77
2022/04/27 10:47:22;;;;;;;14.13;13.43;;;15.30;11.80;;;;;;5039080;28;20436;-77
2022/04/27 10:50:13;;;;;;;12.80;12.20;;;14.50;12.80;;;;;;5040261;28;20417;-77
2022/04/27 10:52:52;;;;;;;14.03;13.30;;;13.40;14.70;;;;;;5034026;28;20981;-76
2022/04/27 10:55:43;;;;;;;13.20;12.60;;;13.10;15.40;;;;;;5035449;28;20431;-76
2022/04/27 10:58:14;;;;;;;11.93;11.33;;;13.30;15.90;;;;;;5033406;28;20406;-76
2022/04/27 11:00:58;;;;;;;12.77;12.17;;;13.40;16.10;;;;;;5034927;28;20451;-77
2022/04/27 11:03:29;;;;;;;12.37;11.67;;;13.60;16.50;;;;;;5037033;28;20789;-78
2022/04/27 11:05:59;;;;;;;12.80;12.10;;;13.70;16.40;;;;;;5036418;28;20514;-75
2022/04/27 11:08:34;;;;;;;12.57;12.07;;;14.00;16.00;;;;;;5034924;28;20460;-76
2022/04/27 11:11:07;;;;;;;13.03;12.40;;;14.20;14.90;;;;;;5039049;28;20416;-77
2022/04/27 11:13:35;;;;;;;13.30;12.60;;;13.90;15.60;;;;;;5034173;28;20454;-75
2022/04/27 11:16:11;;;;;;;13.70;13.00;;;14.10;15.00;;;;;;5034453;28;20423;-77
2022/04/27 11:18:56;;;;;;;11.53;11.03;;;14.00;14.50;;;;;;5034785;28;20410;-77
2022/04/27 11:21:24;;;;;;;12.73;12.03;;;14.00;14.30;;;;;;5033692;28;20420;-76
2022/04/27 11:23:50;;;;;;;12.40;11.80;;;13.50;14.60;;;;;;5035124;28;20503;-76
2022/04/27 11:26:16;;;;;;;13.00;12.30;;;13.70;15.30;;;;;;5036453;28;20962;-77
2022/04/27 11:28:43;;;;;;;12.43;11.83;;;14.10;15.20;;;;;;5045956;28;20428;-75
2022/04/27 11:31:13;;;;;;;14.97;13.80;;;14.40;14.50;;;;;;5038367;28;20460;-77
2022/04/27 11:33:40;;;;;;;12.97;12.37;;;14.10;15.10;;;;;;5034682;28;20546;-77
2022/04/27 11:36:27;;;;;;;12.67;12.07;;;13.90;15.50;;;;;;5033932;28;20425;-76
2022/04/27 11:38:55;;;;;;;13.07;12.47;;;14.10;15.70;;;;;;5034372;28;20434;-76
2022/04/27 11:41:23;;;;;;;13.73;12.97;;;14.00;15.40;;;;;;5035581;28;20463;-77
2022/04/27 11:43:50;;;;;;;12.50;11.90;;;14.20;15.40;;;;;;5040117;28;20426;-76
2022/04/27 11:46:16;;;;;;;12.50;11.80;;;14.10;15.70;;;;;;5043100;28;20919;-77
2022/04/27 11:48:49;;;;;;;12.47;11.77;;;13.90;15.80;;;;;;5032564;28;20419;-76
2022/04/27 11:51:15;;;;;;;13.40;12.37;;;14.10;15.40;;;;;;5034340;28;20417;-77
2022/04/27 11:53:43;;;;;;;12.37;11.83;;;14.20;14.90;;;;;;5035130;28;20466;-77
2022/04/27 11:56:09;;;;;;;13.33;12.73;;;14.40;15.50;;;;;;5038259;28;20560;-77
2022/04/27 11:58:35;;;;;;;13.30;12.70;;;14.80;14.90;;;;;;5051001;28;20430;-77
2022/04/27 12:01:01;;;;;;;12.27;11.60;;;15.20;13.80;;;;;;5035217;28;20171;-76
2022/04/27 12:03:29;;;;;;;13.30;12.40;;;14.90;15.00;;;;;;5032838;28;20657;-76
2022/04/27 12:05:55;;;;;;;14.00;13.10;;;15.40;14.30;;;;;;5032650;28;20463;-76
2022/04/27 12:08:23;;;;;;;13.00;12.40;;;15.80;13.10;;;;;;5035349;28;20410;-77
2022/04/27 12:10:49;;;;;;;12.83;12.07;;;16.00;12.10;;;;;;5034428;28;20730;-77
2022/04/27 12:13:16;;;;;;;14.50;13.23;;;16.30;12.60;;;;;;5034242;28;20468;-75
2022/04/27 12:15:47;;;;;;;13.93;13.33;;;16.30;12.40;;;;;;5033382;28;20415;-76
2022/04/27 12:18:16;;;;;;;13.70;12.80;;;16.10;12.90;;;;;;5032863;28;20462;-77
2022/04/27 12:20:44;;;;;;;14.10;13.50;;;16.20;12.00;;;;;;5032374;28;21036;-77
2022/04/27 12:23:13;;;;;;;13.40;12.80;;;15.60;13.10;;;;;;5031766;28;20414;-77
2022/04/27 12:25:49;;;;;;;12.63;12.13;;;15.60;13.60;;;;;;5033526;28;20410;-75
2022/04/27 12:28:19;;;;;;;14.70;14.00;;;15.60;14.40;;;;;;5035792;28;20410;-77
2022/04/27 12:30:48;;;;;;;13.90;13.10;;;16.20;11.90;;;;;;5035256;28;20484;-76
2022/04/27 12:33:16;;;;;;;15.70;14.80;;;16.50;11.10;;;;;;5035244;28;20466;-77
2022/04/27 12:38:27;;;;;;;13.50;12.97;;;15.80;11.30;;;;;;5035206;28;20475;-76
2022/04/27 12:40:53;;;;;;;14.27;13.57;;;15.30;11.80;;;;;;5034950;28;20405;-76
2022/04/27 12:43:20;;;;;;;13.60;13.00;;;14.60;12.80;;;;;;5034714;28;20417;-76
2022/04/27 12:46:21;;;;;;;12.70;12.10;;;14.80;12.80;;;;;;5034759;28;20233;-76
2022/04/27 12:49:03;;;;;;;13.53;12.93;;;14.70;12.90;;;;;;4992623;28;20466;-76
2022/04/27 12:51:29;;;;;;;13.93;13.23;;;14.40;13.40;;;;;;5030740;28;20432;-76
2022/04/27 12:53:57;;;;;;;13.30;12.80;;;14.30;13.60;;;;;;5034993;28;20827;-76
2022/04/27 12:56:31;;;;;;;12.80;12.30;;;14.50;12.80;;;;;;5034882;28;20434;-75